createdAt,value
2018-12-20T00:00:17.305Z,15.5
2018-12-20T00:01:19.822Z,15.4
2018-12-20T00:02:22.355Z,15.4
2018-12-20T00:03:25.203Z,15.7
2018-12-20T00:04:27.733Z,15.6
2018-12-20T00:05:30.288Z,15.6
2018-12-20T00:06:32.827Z,15.7
2018-12-20T00:07:35.620Z,15.6
2018-12-20T00:08:38.078Z,15.7
2018-12-20T00:09:40.922Z,15.6
2018-12-20T00:10:43.501Z,15.7
2018-12-20T00:11:46.203Z,15.5
2018-12-20T00:12:48.614Z,15.6
2018-12-20T00:13:50.830Z,15.7
2018-12-20T00:14:53.161Z,15.7
2018-12-20T00:15:55.722Z,15.7
2018-12-20T00:16:58.432Z,15.7
2018-12-20T00:18:00.676Z,15.7
2018-12-20T00:19:02.711Z,15.7
2018-12-20T00:20:05.256Z,15.6
2018-12-20T00:21:07.674Z,15.6
2018-12-20T00:22:10.202Z,15.7
2018-12-20T00:23:12.596Z,15.7
2018-12-20T00:24:15.680Z,15.7
2018-12-20T00:25:18.214Z,15.7
2018-12-20T00:26:21.063Z,15.7
2018-12-20T00:27:23.623Z,15.6
2018-12-20T00:28:26.345Z,15.7
2018-12-20T00:29:28.950Z,15.6
2018-12-20T00:30:31.428Z,15.6
2018-12-20T00:31:33.868Z,15.6
2018-12-20T00:32:36.630Z,15.8
2018-12-20T00:33:39.313Z,15.7
2018-12-20T00:34:41.943Z,15.8
2018-12-20T00:35:44.578Z,15.8
2018-12-20T00:36:47.441Z,15.8
2018-12-20T00:37:49.959Z,15.7
2018-12-20T00:38:52.771Z,15.8
2018-12-20T00:39:55.864Z,15.7
2018-12-20T00:40:58.306Z,15.7
2018-12-20T00:42:00.905Z,15.7
2018-12-20T00:43:03.449Z,15.7
2018-12-20T00:44:05.804Z,15.7
2018-12-20T00:45:08.456Z,15.7
2018-12-20T00:46:11.367Z,15.8
2018-12-20T00:47:13.887Z,15.8
2018-12-20T00:48:16.694Z,15.8
2018-12-20T00:49:19.337Z,15.8
2018-12-20T00:50:22.111Z,15.8
2018-12-20T00:51:24.724Z,15.8
2018-12-20T00:52:27.427Z,15.8
2018-12-20T00:53:30.243Z,15.8
2018-12-20T00:54:34.489Z,15.9
2018-12-20T00:55:37.135Z,15.9
2018-12-20T00:56:39.737Z,15.7
2018-12-20T00:57:42.778Z,15.8
2018-12-20T00:58:45.400Z,15.8
2018-12-20T00:59:48.052Z,15.9
2018-12-20T01:00:50.405Z,15.9
2018-12-20T01:01:52.987Z,15.8
2018-12-20T01:02:56.284Z,15.8
2018-12-20T01:03:58.980Z,16
2018-12-20T01:05:01.388Z,15.9
2018-12-20T01:06:03.965Z,15.8
2018-12-20T01:07:06.952Z,15.9
2018-12-20T01:08:09.178Z,16.1
2018-12-20T01:09:12.004Z,15.9
2018-12-20T01:10:14.763Z,16
2018-12-20T01:11:17.412Z,16
2018-12-20T01:12:20.042Z,16.1
2018-12-20T01:13:22.724Z,15.9
2018-12-20T01:14:25.138Z,16
2018-12-20T01:15:27.853Z,15.8
2018-12-20T01:16:30.867Z,16
2018-12-20T01:17:33.551Z,16
2018-12-20T01:18:36.061Z,15.8
2018-12-20T01:19:39.018Z,16
2018-12-20T01:20:41.602Z,15.9
2018-12-20T01:21:43.916Z,15.9
2018-12-20T01:22:46.537Z,15.9
2018-12-20T01:23:48.977Z,15.9
2018-12-20T01:24:51.403Z,16
2018-12-20T01:25:53.963Z,15.9
2018-12-20T01:26:56.217Z,16
2018-12-20T01:27:58.681Z,16.1
2018-12-20T01:29:00.859Z,16
2018-12-20T01:30:03.509Z,16
2018-12-20T01:31:05.700Z,16.1
2018-12-20T01:32:08.450Z,15.9
2018-12-20T01:33:10.724Z,15.9
2018-12-20T01:34:13.494Z,15.9
2018-12-20T01:35:15.972Z,16
2018-12-20T01:36:18.572Z,16
2018-12-20T01:37:21.052Z,15.9
2018-12-20T01:38:23.539Z,16.1
2018-12-20T01:39:26.028Z,15.9
2018-12-20T01:40:28.809Z,16
2018-12-20T01:41:31.514Z,16.1
2018-12-20T01:42:34.414Z,16.1
2018-12-20T01:43:37.121Z,15.9
2018-12-20T01:44:39.325Z,16
2018-12-20T01:45:40.923Z,16.1
2018-12-20T01:46:43.843Z,16
2018-12-20T01:47:46.639Z,16.1
2018-12-20T01:48:49.120Z,16
2018-12-20T01:49:51.852Z,15.9
2018-12-20T01:50:54.059Z,15.8
2018-12-20T01:51:56.111Z,16.1
2018-12-20T01:52:58.669Z,16.1
2018-12-20T01:54:01.233Z,16.1
2018-12-20T01:55:03.939Z,16
2018-12-20T01:56:06.903Z,16
2018-12-20T01:57:09.864Z,16
2018-12-20T01:58:12.543Z,16
2018-12-20T01:59:14.939Z,16
2018-12-20T02:00:17.533Z,16.1
2018-12-20T02:01:20.092Z,16
2018-12-20T02:02:22.362Z,16.1
2018-12-20T02:03:24.935Z,16
2018-12-20T02:04:27.551Z,16.1
2018-12-20T02:05:30.190Z,16
2018-12-20T02:06:32.857Z,16.1
2018-12-20T02:07:35.420Z,16.2
2018-12-20T02:08:38.182Z,16
2018-12-20T02:09:40.816Z,16.1
2018-12-20T02:10:43.173Z,16.1
2018-12-20T02:11:45.386Z,16
2018-12-20T02:12:47.611Z,16.2
2018-12-20T02:13:50.095Z,16.1
2018-12-20T02:14:52.641Z,16.2
2018-12-20T02:15:58.581Z,16.1
2018-12-20T02:17:01.365Z,16
2018-12-20T02:18:03.709Z,16.2
2018-12-20T02:19:06.175Z,16
2018-12-20T02:20:08.628Z,16
2018-12-20T02:21:11.156Z,16.1
2018-12-20T02:22:13.524Z,16.2
2018-12-20T02:23:16.155Z,16.1
2018-12-20T02:24:18.767Z,16.2
2018-12-20T02:25:21.154Z,16
2018-12-20T02:26:23.699Z,16.1
2018-12-20T02:27:26.379Z,16.1
2018-12-20T02:28:28.827Z,16.2
2018-12-20T02:29:31.388Z,16.1
2018-12-20T02:30:34.062Z,15.9
2018-12-20T02:31:36.715Z,16.1
2018-12-20T02:32:39.220Z,16.1
2018-12-20T02:33:42.073Z,16.2
2018-12-20T02:34:44.688Z,16.1
2018-12-20T02:35:47.353Z,16.2
2018-12-20T02:36:50.449Z,16.2
2018-12-20T02:37:53.190Z,16.1
2018-12-20T02:38:55.950Z,16.1
2018-12-20T02:39:58.146Z,16
2018-12-20T02:41:01.062Z,16.2
2018-12-20T02:42:03.855Z,16.2
2018-12-20T02:43:06.703Z,16.1
2018-12-20T02:44:09.503Z,16.1
2018-12-20T02:45:12.061Z,16.1
2018-12-20T02:46:14.450Z,16
2018-12-20T02:47:17.246Z,16.1
2018-12-20T02:48:20.008Z,16.2
2018-12-20T02:49:22.988Z,16.2
2018-12-20T02:50:25.607Z,16.2
2018-12-20T02:51:28.392Z,16.2
2018-12-20T02:52:31.143Z,16.2
2018-12-20T02:53:34.050Z,16.1
2018-12-20T02:54:36.923Z,16.2
2018-12-20T02:55:39.643Z,16.2
2018-12-20T02:56:41.992Z,16.2
2018-12-20T02:57:44.496Z,16.2
2018-12-20T02:58:46.706Z,16.2
2018-12-20T02:59:49.554Z,16.2
2018-12-20T03:00:51.923Z,16.3
2018-12-20T03:01:54.543Z,16.1
2018-12-20T03:02:57.418Z,16.1
2018-12-20T03:04:00.561Z,16.2
2018-12-20T03:05:03.231Z,16.2
2018-12-20T03:06:05.753Z,16.1
2018-12-20T03:07:08.314Z,16.2
2018-12-20T03:08:10.822Z,16
2018-12-20T03:09:12.993Z,16.2
2018-12-20T03:10:15.303Z,16.2
2018-12-20T03:11:17.652Z,16.2
2018-12-20T03:12:20.316Z,16.2
2018-12-20T03:13:22.999Z,16.2
2018-12-20T03:14:25.546Z,16.1
2018-12-20T03:15:28.354Z,16.2
2018-12-20T03:16:30.940Z,16.1
2018-12-20T03:17:33.553Z,16.2
2018-12-20T03:18:36.003Z,16.1
2018-12-20T03:19:38.220Z,16.1
2018-12-20T03:20:40.762Z,16.1
2018-12-20T03:21:43.501Z,16.2
2018-12-20T03:22:45.755Z,16.2
2018-12-20T03:23:47.952Z,16.2
2018-12-20T03:24:50.438Z,16.2
2018-12-20T03:25:52.975Z,16.2
2018-12-20T03:26:55.528Z,16.2
2018-12-20T03:27:58.108Z,16.2
2018-12-20T03:29:00.548Z,16.2
2018-12-20T03:30:03.661Z,16.2
2018-12-20T03:31:06.579Z,16.2
2018-12-20T03:32:09.651Z,16.2
2018-12-20T03:33:12.933Z,16.2
2018-12-20T03:34:15.385Z,16.1
2018-12-20T03:35:18.279Z,16.2
2018-12-20T03:36:20.857Z,16.1
2018-12-20T03:37:23.519Z,16.2
2018-12-20T03:38:26.109Z,16.2
2018-12-20T03:39:28.695Z,16.2
2018-12-20T03:40:31.313Z,16.2
2018-12-20T03:41:34.109Z,16.1
2018-12-20T03:42:36.658Z,16.2
2018-12-20T03:43:39.525Z,16.2
2018-12-20T03:44:42.104Z,16.2
2018-12-20T03:45:44.603Z,16.2
2018-12-20T03:46:47.536Z,16.2
2018-12-20T03:47:50.243Z,16.2
2018-12-20T03:48:52.792Z,16.3
2018-12-20T03:49:55.677Z,16.2
2018-12-20T03:50:58.327Z,16.2
2018-12-20T03:52:01.369Z,16.2
2018-12-20T03:53:04.370Z,16.2
2018-12-20T03:54:07.077Z,16.2
2018-12-20T03:55:09.672Z,16.3
2018-12-20T03:56:12.399Z,16.2
2018-12-20T03:57:15.265Z,16.2
2018-12-20T03:58:18.064Z,16.3
2018-12-20T03:59:20.153Z,16.3
2018-12-20T04:00:22.910Z,16.2
2018-12-20T04:01:25.583Z,16.2
2018-12-20T04:02:28.357Z,16.3
2018-12-20T04:03:30.794Z,16.2
2018-12-20T04:04:33.780Z,16.3
2018-12-20T04:05:36.592Z,16.2
2018-12-20T04:06:38.912Z,16.2
2018-12-20T04:07:41.925Z,16.2
2018-12-20T04:08:44.236Z,16.2
2018-12-20T04:09:47.000Z,16.2
2018-12-20T04:10:49.737Z,16.1
2018-12-20T04:11:52.413Z,16.2
2018-12-20T04:12:54.878Z,16.2
2018-12-20T04:13:57.023Z,16.2
2018-12-20T04:14:59.445Z,16.2
2018-12-20T04:16:02.206Z,16.2
2018-12-20T04:17:05.244Z,16.2
2018-12-20T04:18:08.178Z,16.2
2018-12-20T04:19:10.771Z,16.2
2018-12-20T04:20:13.242Z,16.3
2018-12-20T04:21:15.890Z,16.1
2018-12-20T04:22:18.695Z,16
2018-12-20T04:23:21.217Z,16.1
2018-12-20T04:24:23.563Z,16.1
2018-12-20T04:25:26.037Z,16.1
2018-12-20T04:26:28.485Z,16
2018-12-20T04:27:30.938Z,16.1
2018-12-20T04:28:33.742Z,16.1
2018-12-20T04:29:36.335Z,16.2
2018-12-20T04:30:38.783Z,15.9
2018-12-20T04:31:41.379Z,16
2018-12-20T04:32:44.098Z,16.1
2018-12-20T04:33:46.883Z,16.1
2018-12-20T04:34:49.592Z,16.1
2018-12-20T04:35:52.353Z,16
2018-12-20T04:36:54.794Z,16
2018-12-20T04:37:56.976Z,16.1
2018-12-20T04:38:59.604Z,16
2018-12-20T04:40:02.366Z,15.9
2018-12-20T04:41:05.204Z,16.1
2018-12-20T04:42:07.755Z,16
2018-12-20T04:43:10.181Z,16
2018-12-20T04:44:13.102Z,16.1
2018-12-20T04:45:15.672Z,16
2018-12-20T04:46:18.380Z,16.1
2018-12-20T04:47:22.380Z,15.9
2018-12-20T04:48:25.306Z,16.1
2018-12-20T04:49:28.054Z,16
2018-12-20T04:50:30.280Z,16.1
2018-12-20T04:51:32.909Z,16.3
2018-12-20T04:52:35.668Z,15.9
2018-12-20T04:53:38.134Z,16
2018-12-20T04:54:40.520Z,15.9
2018-12-20T04:55:42.950Z,16.1
2018-12-20T04:56:45.679Z,16
2018-12-20T04:57:48.227Z,16.1
2018-12-20T04:58:50.943Z,16.1
2018-12-20T04:59:53.415Z,16.1
2018-12-20T05:00:56.391Z,16
2018-12-20T05:01:59.042Z,15.8
2018-12-20T05:03:01.756Z,16
2018-12-20T05:04:04.695Z,15.9
2018-12-20T05:05:07.402Z,15.9
2018-12-20T05:06:09.958Z,16
2018-12-20T05:07:12.828Z,16
2018-12-20T05:08:15.376Z,16
2018-12-20T05:09:17.960Z,16
2018-12-20T05:10:20.812Z,15.9
2018-12-20T05:11:23.573Z,16
2018-12-20T05:12:26.410Z,15.9
2018-12-20T05:13:28.937Z,15.9
2018-12-20T05:14:31.250Z,16.1
2018-12-20T05:15:33.663Z,16
2018-12-20T05:16:36.075Z,16
2018-12-20T05:17:38.912Z,16
2018-12-20T05:18:42.277Z,16
2018-12-20T05:19:44.957Z,16
2018-12-20T05:20:47.909Z,16
2018-12-20T05:21:50.519Z,16.1
2018-12-20T05:22:52.900Z,16
2018-12-20T05:23:55.496Z,15.9
2018-12-20T05:24:57.980Z,15.9
2018-12-20T05:26:00.170Z,16.1
2018-12-20T05:27:02.661Z,15.9
2018-12-20T05:28:05.144Z,16
2018-12-20T05:29:07.493Z,15.9
2018-12-20T05:30:10.296Z,16
2018-12-20T05:31:13.061Z,16
2018-12-20T05:32:15.638Z,16
2018-12-20T05:33:17.817Z,15.8
2018-12-20T05:34:20.594Z,16
2018-12-20T05:35:23.299Z,16
2018-12-20T05:36:25.850Z,15.9
2018-12-20T05:37:28.174Z,15.9
2018-12-20T05:38:30.798Z,15.9
2018-12-20T05:39:33.141Z,15.9
2018-12-20T05:40:35.810Z,16.1
2018-12-20T05:41:38.264Z,16
2018-12-20T05:42:40.627Z,16
2018-12-20T05:43:43.380Z,16.1
2018-12-20T05:45:50.914Z,16
2018-12-20T05:46:53.472Z,16
2018-12-20T05:47:56.264Z,15.8
2018-12-20T05:48:58.986Z,16.1
2018-12-20T05:50:01.325Z,15.9
2018-12-20T05:51:03.823Z,16
2018-12-20T05:52:06.528Z,16
2018-12-20T05:53:08.376Z,16
2018-12-20T05:54:10.989Z,15.9
2018-12-20T05:55:13.792Z,15.9
2018-12-20T05:56:16.592Z,15.9
2018-12-20T05:57:19.083Z,15.9
2018-12-20T05:58:21.248Z,16
2018-12-20T05:59:23.524Z,16
2018-12-20T06:00:25.824Z,16
2018-12-20T06:01:28.639Z,16.1
2018-12-20T06:02:31.273Z,15.9
2018-12-20T06:03:33.810Z,15.9
2018-12-20T06:04:36.499Z,16
2018-12-20T06:05:38.913Z,15.8
2018-12-20T06:06:41.673Z,15.9
2018-12-20T06:07:44.237Z,15.9
2018-12-20T06:08:46.685Z,15.9
2018-12-20T06:09:49.011Z,16.2
2018-12-20T06:10:51.178Z,15.8
2018-12-20T06:11:53.831Z,15.9
2018-12-20T06:12:56.260Z,15.9
2018-12-20T06:13:58.772Z,15.9
2018-12-20T06:15:01.123Z,15.9
2018-12-20T06:16:03.551Z,16
2018-12-20T06:17:09.480Z,15.8
2018-12-20T06:18:12.118Z,16
2018-12-20T06:19:14.885Z,16
2018-12-20T06:20:17.885Z,15.8
2018-12-20T06:21:20.622Z,16
2018-12-20T06:22:23.192Z,16
2018-12-20T06:23:25.117Z,15.8
2018-12-20T06:24:27.128Z,15.9
2018-12-20T06:25:29.287Z,15.9
2018-12-20T06:26:31.720Z,15.9
2018-12-20T06:27:34.153Z,15.9
2018-12-20T06:28:36.293Z,15.8
2018-12-20T06:29:38.442Z,15.9
2018-12-20T06:30:40.606Z,15.8
2018-12-20T06:31:43.032Z,15.8
2018-12-20T06:32:45.444Z,16
2018-12-20T06:33:47.594Z,15.9
2018-12-20T06:34:49.242Z,16.1
2018-12-20T06:35:51.666Z,16
2018-12-20T06:36:54.184Z,15.9
2018-12-20T06:37:56.347Z,15.9
2018-12-20T06:38:58.209Z,15.9
2018-12-20T06:40:00.642Z,15.8
2018-12-20T06:41:03.066Z,15.8
2018-12-20T06:42:05.224Z,15.9
2018-12-20T06:43:07.668Z,15.8
2018-12-20T06:44:10.093Z,15.8
2018-12-20T06:45:12.252Z,15.8
2018-12-20T06:47:19.657Z,15.9
2018-12-20T06:48:22.203Z,16
2018-12-20T06:49:24.471Z,15.8
2018-12-20T06:50:26.644Z,15.9
2018-12-20T06:51:28.811Z,15.8
2018-12-20T06:52:31.248Z,15.8
2018-12-20T06:53:33.420Z,15.7
2018-12-20T06:54:35.889Z,16
2018-12-20T06:55:38.322Z,16
2018-12-20T06:56:40.562Z,15.8
2018-12-20T06:57:43.003Z,16
2018-12-20T06:58:45.422Z,15.9
2018-12-20T06:59:47.283Z,15.9
2018-12-20T07:00:49.442Z,15.9
2018-12-20T07:01:51.868Z,15.9
2018-12-20T07:02:54.310Z,15.9
2018-12-20T07:03:56.736Z,15.9
2018-12-20T07:04:58.901Z,15.8
2018-12-20T07:06:01.083Z,15.8
2018-12-20T07:07:03.207Z,15.8
2018-12-20T07:08:05.078Z,15.9
2018-12-20T07:09:07.235Z,15.8
2018-12-20T07:10:09.136Z,15.8
2018-12-20T07:11:11.293Z,15.9
2018-12-20T07:12:13.713Z,15.9
2018-12-20T07:13:16.133Z,15.8
2018-12-20T07:14:18.003Z,15.8
2018-12-20T07:15:20.332Z,15.8
2018-12-20T07:17:27.753Z,15.9
2018-12-20T07:18:30.251Z,15.8
2018-12-20T07:19:32.486Z,15.8
2018-12-20T07:20:34.906Z,15.9
2018-12-20T07:21:37.322Z,15.9
2018-12-20T07:22:39.192Z,15.9
2018-12-20T07:23:41.629Z,15.8
2018-12-20T07:24:43.790Z,15.9
2018-12-20T07:25:45.946Z,15.9
2018-12-20T07:26:47.848Z,15.8
2018-12-20T07:27:50.034Z,15.8
2018-12-20T07:28:52.457Z,15.8
2018-12-20T07:29:54.903Z,15.8
2018-12-20T07:30:57.072Z,15.8
2018-12-20T07:31:59.240Z,15.8
2018-12-20T07:33:01.663Z,15.8
2018-12-20T07:34:03.815Z,15.7
2018-12-20T07:35:05.970Z,15.8
2018-12-20T07:36:08.487Z,15.8
2018-12-20T07:37:10.402Z,15.9
2018-12-20T07:38:11.985Z,15.8
2018-12-20T07:39:14.506Z,15.8
2018-12-20T07:40:16.929Z,15.8
2018-12-20T07:41:19.084Z,15.8
2018-12-20T07:42:21.249Z,15.8
2018-12-20T07:43:23.707Z,15.8
2018-12-20T07:44:26.233Z,15.8
2018-12-20T07:45:28.390Z,15.8
2018-12-20T07:47:35.787Z,15.8
2018-12-20T07:48:38.244Z,15.8
2018-12-20T07:49:40.677Z,15.8
2018-12-20T07:50:42.822Z,15.9
2018-12-20T07:51:44.430Z,15.8
2018-12-20T07:52:46.880Z,15.8
2018-12-20T07:53:49.025Z,15.8
2018-12-20T07:54:51.181Z,15.8
2018-12-20T07:55:53.605Z,15.9
2018-12-20T07:56:55.763Z,15.8
2018-12-20T07:57:58.225Z,15.8
2018-12-20T07:58:59.835Z,15.8
2018-12-20T08:00:01.973Z,15.8
2018-12-20T08:01:04.406Z,15.7
2018-12-20T08:02:06.565Z,15.8
2018-12-20T08:03:08.725Z,15.8
2018-12-20T08:04:11.185Z,15.8
2018-12-20T08:05:13.703Z,15.9
2018-12-20T08:06:15.874Z,15.8
2018-12-20T08:07:18.289Z,15.8
2018-12-20T08:08:20.449Z,15.9
2018-12-20T08:09:22.605Z,15.7
2018-12-20T08:10:24.492Z,15.8
2018-12-20T08:11:26.636Z,15.8
2018-12-20T08:12:28.787Z,15.8
2018-12-20T08:13:31.212Z,15.8
2018-12-20T08:14:33.637Z,15.8
2018-12-20T08:15:36.065Z,15.7
2018-12-20T08:17:43.191Z,15.7
2018-12-20T08:18:45.358Z,15.8
2018-12-20T08:19:47.792Z,15.8
2018-12-20T08:20:50.221Z,15.8
2018-12-20T08:21:52.655Z,15.7
2018-12-20T08:22:55.074Z,15.7
2018-12-20T08:23:57.493Z,15.8
2018-12-20T08:24:59.936Z,15.8
2018-12-20T08:26:02.073Z,15.8
2018-12-20T08:27:04.237Z,15.8
2018-12-20T08:28:06.123Z,15.7
2018-12-20T08:29:08.377Z,15.8
2018-12-20T08:30:10.813Z,15.8
2018-12-20T08:31:13.243Z,15.8
2018-12-20T08:32:15.392Z,15.7
2018-12-20T08:33:17.251Z,15.7
2018-12-20T08:34:19.780Z,15.8
2018-12-20T08:35:22.222Z,15.8
2018-12-20T08:36:24.379Z,15.8
2018-12-20T08:37:26.382Z,15.8
2018-12-20T08:38:28.525Z,15.8
2018-12-20T08:39:30.690Z,15.8
2018-12-20T08:40:33.124Z,15.8
2018-12-20T08:41:35.553Z,15.8
2018-12-20T08:42:37.713Z,15.8
2018-12-20T08:43:40.138Z,15.8
2018-12-20T08:44:42.013Z,15.7
2018-12-20T08:45:43.887Z,15.8
2018-12-20T08:47:51.316Z,15.7
2018-12-20T08:48:53.749Z,15.7
2018-12-20T08:49:55.874Z,15.7
2018-12-20T08:50:58.312Z,15.8
2018-12-20T08:52:00.760Z,15.7
2018-12-20T08:53:03.182Z,15.7
2018-12-20T08:54:05.636Z,15.7
2018-12-20T08:55:08.063Z,15.7
2018-12-20T08:56:10.528Z,15.8
2018-12-20T08:57:12.680Z,15.7
2018-12-20T08:58:15.112Z,15.8
2018-12-20T08:59:16.987Z,15.6
2018-12-20T09:00:19.418Z,15.6
2018-12-20T09:01:21.561Z,15.7
2018-12-20T09:02:23.723Z,15.8
2018-12-20T09:03:25.893Z,15.8
2018-12-20T09:04:28.316Z,15.8
2018-12-20T09:05:30.740Z,15.7
2018-12-20T09:06:33.167Z,15.8
2018-12-20T09:07:35.055Z,15.7
2018-12-20T09:08:37.513Z,15.7
2018-12-20T09:09:39.669Z,15.8
2018-12-20T09:10:42.105Z,15.8
2018-12-20T09:11:44.527Z,15.7
2018-12-20T09:12:46.683Z,15.8
2018-12-20T09:13:49.114Z,15.7
2018-12-20T09:14:51.542Z,15.7
2018-12-20T09:15:53.984Z,15.8
2018-12-20T09:18:01.409Z,15.7
2018-12-20T09:19:03.849Z,15.7
2018-12-20T09:20:06.276Z,15.7
2018-12-20T09:21:08.698Z,15.7
2018-12-20T09:22:10.858Z,15.7
2018-12-20T09:23:13.282Z,15.7
2018-12-20T09:24:15.700Z,15.8
2018-12-20T09:25:17.562Z,15.8
2018-12-20T09:26:19.704Z,15.8
2018-12-20T09:27:22.132Z,15.7
2018-12-20T09:28:24.572Z,15.7
2018-12-20T09:29:26.460Z,15.7
2018-12-20T09:31:33.862Z,15.7
2018-12-20T09:32:35.999Z,15.7
2018-12-20T09:33:38.422Z,15.7
2018-12-20T09:34:40.852Z,15.7
2018-12-20T09:35:43.285Z,15.8
2018-12-20T09:36:45.700Z,15.7
2018-12-20T09:37:47.838Z,15.7
2018-12-20T09:38:50.264Z,15.7
2018-12-20T09:39:52.519Z,15.7
2018-12-20T09:40:54.928Z,15.8
2018-12-20T09:41:57.370Z,15.7
2018-12-20T09:42:59.000Z,15.7
2018-12-20T09:44:01.155Z,15.7
2018-12-20T09:45:03.583Z,15.8
2018-12-20T09:46:06.022Z,15.7
2018-12-20T09:48:13.441Z,15.8
2018-12-20T09:49:15.883Z,15.7
2018-12-20T09:50:17.756Z,15.7
2018-12-20T09:51:19.900Z,15.8
2018-12-20T09:52:22.326Z,15.7
2018-12-20T09:53:24.208Z,15.7
2018-12-20T09:54:26.650Z,15.7
2018-12-20T09:55:28.809Z,15.7
2018-12-20T09:56:31.213Z,15.7
2018-12-20T09:57:33.903Z,15.6
2018-12-20T09:58:36.348Z,15.7
2018-12-20T09:59:38.804Z,15.7
2018-12-20T10:00:40.662Z,15.8
2018-12-20T10:01:43.190Z,15.7
2018-12-20T10:02:45.366Z,15.8
2018-12-20T10:03:47.514Z,15.8
2018-12-20T10:04:49.681Z,15.6
2018-12-20T10:05:52.113Z,15.7
2018-12-20T10:06:53.989Z,15.6
2018-12-20T10:07:56.161Z,15.6
2018-12-20T10:08:58.112Z,15.7
2018-12-20T10:10:00.275Z,15.7
2018-12-20T10:11:02.713Z,15.7
2018-12-20T10:12:05.143Z,15.7
2018-12-20T10:13:07.595Z,15.7
2018-12-20T10:14:10.023Z,15.7
2018-12-20T10:15:12.172Z,15.7
2018-12-20T10:16:14.595Z,15.8
2018-12-20T10:18:22.006Z,15.7
2018-12-20T10:19:24.180Z,15.7
2018-12-20T10:20:26.616Z,15.7
2018-12-20T10:21:29.054Z,15.7
2018-12-20T10:22:31.481Z,15.7
2018-12-20T10:23:33.911Z,15.8
2018-12-20T10:24:36.336Z,15.7
2018-12-20T10:25:38.488Z,15.8
2018-12-20T10:26:40.636Z,15.7
2018-12-20T10:27:43.075Z,15.7
2018-12-20T10:28:45.222Z,15.7
2018-12-20T10:29:47.373Z,15.7
2018-12-20T10:30:49.811Z,15.7
2018-12-20T10:31:51.957Z,15.7
2018-12-20T10:32:54.410Z,15.7
2018-12-20T10:33:56.824Z,15.7
2018-12-20T10:34:59.321Z,15.7
2018-12-20T10:36:01.753Z,15.7
2018-12-20T10:37:03.884Z,15.7
2018-12-20T10:38:06.315Z,15.8
2018-12-20T10:39:08.187Z,15.7
2018-12-20T10:40:10.341Z,15.6
2018-12-20T10:41:12.497Z,15.7
2018-12-20T10:42:14.917Z,15.6
2018-12-20T10:43:17.351Z,15.8
2018-12-20T10:44:19.510Z,15.6
2018-12-20T10:45:21.963Z,15.7
2018-12-20T10:46:24.130Z,15.8
2018-12-20T10:48:31.272Z,15.7
2018-12-20T10:49:33.161Z,15.7
2018-12-20T10:50:35.017Z,15.7
2018-12-20T10:51:36.887Z,15.7
2018-12-20T10:52:39.018Z,15.7
2018-12-20T10:53:41.436Z,15.7
2018-12-20T10:54:43.954Z,15.7
2018-12-20T10:55:46.377Z,15.7
2018-12-20T10:56:48.808Z,15.7
2018-12-20T10:57:51.243Z,15.7
2018-12-20T10:58:53.676Z,15.6
2018-12-20T10:59:56.109Z,15.8
2018-12-20T11:00:58.269Z,15.7
2018-12-20T11:02:00.699Z,15.7
2018-12-20T11:03:02.863Z,15.6
2018-12-20T11:04:05.294Z,15.7
2018-12-20T11:05:07.715Z,15.7
2018-12-20T11:06:10.140Z,15.8
2018-12-20T11:07:12.575Z,15.7
2018-12-20T11:08:14.735Z,15.7
2018-12-20T11:09:16.890Z,15.6
2018-12-20T11:10:18.773Z,15.7
2018-12-20T11:11:21.202Z,15.6
2018-12-20T11:12:23.477Z,15.8
2018-12-20T11:13:25.622Z,15.7
2018-12-20T11:14:27.787Z,15.8
2018-12-20T11:15:29.931Z,15.7
2018-12-20T11:16:32.164Z,15.7
2018-12-20T11:18:39.294Z,15.7
2018-12-20T11:19:41.161Z,15.7
2018-12-20T11:20:43.703Z,15.8
2018-12-20T11:21:45.999Z,15.7
2018-12-20T11:22:48.177Z,15.7
2018-12-20T11:23:50.602Z,15.6
2018-12-20T11:24:53.030Z,15.7
2018-12-20T11:25:55.451Z,15.7
2018-12-20T11:26:58.175Z,15.7
2018-12-20T11:28:00.086Z,15.7
2018-12-20T11:29:02.509Z,15.7
2018-12-20T11:30:04.932Z,15.7
2018-12-20T11:31:07.092Z,15.7
2018-12-20T11:32:09.572Z,15.7
2018-12-20T11:33:12.013Z,15.6
2018-12-20T11:34:14.455Z,15.7
2018-12-20T11:35:16.581Z,15.7
2018-12-20T11:36:19.003Z,15.7
2018-12-20T11:37:21.425Z,15.7
2018-12-20T11:38:23.853Z,15.6
2018-12-20T11:39:26.274Z,15.6
2018-12-20T11:40:28.702Z,15.6
2018-12-20T11:41:31.132Z,15.8
2018-12-20T11:42:33.305Z,15.7
2018-12-20T11:43:35.436Z,15.7
2018-12-20T11:44:37.590Z,15.7
2018-12-20T11:45:40.009Z,15.6
2018-12-20T11:46:42.461Z,15.6
2018-12-20T11:47:46.704Z,15.7
2018-12-20T11:48:48.851Z,15.7
2018-12-20T11:49:51.021Z,15.7
2018-12-20T11:50:53.454Z,15.7
2018-12-20T11:51:55.895Z,15.7
2018-12-20T11:52:58.325Z,15.7
2018-12-20T11:54:00.748Z,15.7
2018-12-20T11:55:02.975Z,15.7
2018-12-20T11:56:05.525Z,15.7
2018-12-20T11:57:07.956Z,15.7
2018-12-20T11:58:10.117Z,15.7
2018-12-20T11:59:12.269Z,15.7
2018-12-20T12:00:14.694Z,15.7
2018-12-20T12:01:17.227Z,15.7
2018-12-20T12:03:24.372Z,15.7
2018-12-20T12:04:26.262Z,15.7
2018-12-20T12:05:28.431Z,15.7
2018-12-20T12:06:30.865Z,15.6
2018-12-20T12:07:33.333Z,15.7
2018-12-20T12:08:35.517Z,15.8
2018-12-20T12:09:37.404Z,15.7
2018-12-20T12:10:39.836Z,15.7
2018-12-20T12:11:42.257Z,15.7
2018-12-20T12:12:44.683Z,15.7
2018-12-20T12:13:46.823Z,15.8
2018-12-20T12:14:48.972Z,15.7
2018-12-20T12:15:50.847Z,15.7
2018-12-20T12:16:53.290Z,15.6
2018-12-20T12:17:55.713Z,15.7
2018-12-20T12:18:58.133Z,15.7
2018-12-20T12:20:00.571Z,15.7
2018-12-20T12:21:03.005Z,15.7
2018-12-20T12:22:05.162Z,15.8
2018-12-20T12:23:07.323Z,15.8
2018-12-20T12:24:09.772Z,15.6
2018-12-20T12:25:11.929Z,15.6
2018-12-20T12:26:14.351Z,15.7
2018-12-20T12:27:16.791Z,15.6
2018-12-20T12:28:19.223Z,15.7
2018-12-20T12:29:21.374Z,15.7
2018-12-20T12:30:23.557Z,15.7
2018-12-20T12:31:25.680Z,15.6
2018-12-20T12:32:28.151Z,15.7
2018-12-20T12:33:30.653Z,15.7
2018-12-20T12:34:33.096Z,15.6
2018-12-20T12:35:34.705Z,15.7
2018-12-20T12:36:36.855Z,15.6
2018-12-20T12:37:39.273Z,15.7
2018-12-20T12:38:41.731Z,15.6
2018-12-20T12:39:44.167Z,15.6
2018-12-20T12:40:46.588Z,15.7
2018-12-20T12:41:48.747Z,15.7
2018-12-20T12:42:51.189Z,15.8
2018-12-20T12:43:53.343Z,15.6
2018-12-20T12:44:55.483Z,15.6
2018-12-20T12:45:57.903Z,15.7
2018-12-20T12:47:00.325Z,15.7
2018-12-20T12:48:04.366Z,15.7
2018-12-20T12:49:06.251Z,15.5
2018-12-20T12:50:08.422Z,15.6
2018-12-20T12:51:10.581Z,15.7
2018-12-20T12:52:13.005Z,15.7
2018-12-20T12:53:15.433Z,15.7
2018-12-20T12:54:17.661Z,15.7
2018-12-20T12:55:19.816Z,15.6
2018-12-20T12:56:21.706Z,15.8
2018-12-20T12:57:23.586Z,15.7
2018-12-20T12:58:26.041Z,15.7
2018-12-20T12:59:28.214Z,15.7
2018-12-20T13:00:30.363Z,15.6
2018-12-20T13:01:32.521Z,15.7
2018-12-20T13:02:34.693Z,15.7
2018-12-20T13:03:37.248Z,15.7
2018-12-20T13:04:39.674Z,15.7
2018-12-20T13:05:42.129Z,15.7
2018-12-20T13:06:44.614Z,15.7
2018-12-20T13:07:47.107Z,15.7
2018-12-20T13:08:49.011Z,15.7
2018-12-20T13:09:51.173Z,15.7
2018-12-20T13:10:53.328Z,15.7
2018-12-20T13:11:55.763Z,15.7
2018-12-20T13:12:58.190Z,15.7
2018-12-20T13:14:00.350Z,15.7
2018-12-20T13:15:02.489Z,15.7
2018-12-20T13:16:04.345Z,15.8
2018-12-20T13:17:06.789Z,15.8
2018-12-20T13:19:14.199Z,15.7
2018-12-20T13:20:16.671Z,15.7
2018-12-20T13:21:18.885Z,15.7
2018-12-20T13:22:21.327Z,15.6
2018-12-20T13:23:23.216Z,15.7
2018-12-20T13:24:27.393Z,15.5
2018-12-20T13:25:29.831Z,15.8
2018-12-20T13:26:31.983Z,15.6
2018-12-20T13:27:34.419Z,15.8
2018-12-20T13:28:36.851Z,15.7
2018-12-20T13:29:39.283Z,15.7
2018-12-20T13:30:41.442Z,15.6
2018-12-20T13:31:43.598Z,15.5
2018-12-20T13:32:46.014Z,15.5
2018-12-20T13:33:48.189Z,15.7
2018-12-20T13:34:50.624Z,15.7
2018-12-20T13:35:53.061Z,15.7
2018-12-20T13:36:55.189Z,15.7
2018-12-20T13:37:57.612Z,15.7
2018-12-20T13:39:00.038Z,15.8
2018-12-20T13:40:02.472Z,15.7
2018-12-20T13:41:04.682Z,15.7
2018-12-20T13:42:06.571Z,15.7
2018-12-20T13:43:08.724Z,15.7
2018-12-20T13:44:11.155Z,15.6
2018-12-20T13:45:13.670Z,15.6
2018-12-20T13:46:16.192Z,15.7
2018-12-20T13:47:19.425Z,15.7
2018-12-20T13:48:23.027Z,15.7
2018-12-20T13:49:24.625Z,15.7
2018-12-20T13:50:27.066Z,15.8
2018-12-20T13:51:29.495Z,15.7
2018-12-20T13:52:31.917Z,15.6
2018-12-20T13:53:34.085Z,15.7
2018-12-20T13:54:36.270Z,15.6
2018-12-20T13:55:38.437Z,15.6
2018-12-20T13:56:40.555Z,15.7
2018-12-20T13:57:42.732Z,15.6
2018-12-20T13:58:45.174Z,15.7
2018-12-20T13:59:47.595Z,15.7
2018-12-20T14:00:49.751Z,15.7
2018-12-20T14:01:51.894Z,15.6
2018-12-20T14:02:54.320Z,15.7
2018-12-20T14:03:57.717Z,15.7
2018-12-20T14:05:00.145Z,15.7
2018-12-20T14:06:02.291Z,15.7
2018-12-20T14:07:04.824Z,15.8
2018-12-20T14:08:07.258Z,15.8
2018-12-20T14:09:09.422Z,15.6
2018-12-20T14:10:11.314Z,15.8
2018-12-20T14:11:13.754Z,15.7
2018-12-20T14:12:16.194Z,15.6